sensor_id;sensor_type;location;lat;lon;timestamp;pressure;altitude;pressure_sealevel;temperature;humidity
35892;BME280;21993;42.672;23.296;2023-07-31T00:01:43;94379.34;;;25.24;56.55
35892;BME280;21993;42.672;23.296;2023-07-31T00:04:08;94382.59;;;25.26;56.60
35892;BME280;21993;42.672;23.296;2023-07-31T00:06:34;94393.34;;;25.26;56.19
35892;BME280;21993;42.672;23.296;2023-07-31T00:08:59;94389.94;;;25.19;56.82
35892;BME280;21993;42.672;23.296;2023-07-31T00:11:25;94387.16;;;25.14;56.89
35892;BME280;21993;42.672;23.296;2023-07-31T00:13:53;94397.78;;;25.09;56.71
35892;BME280;21993;42.672;23.296;2023-07-31T00:16:19;94394.59;;;25.01;56.23
35892;BME280;21993;42.672;23.296;2023-07-31T00:18:44;94388.16;;;25.02;56.67
35892;BME280;21993;42.672;23.296;2023-07-31T00:21:10;94383.84;;;25.01;57.13
35892;BME280;21993;42.672;23.296;2023-07-31T00:23:35;94384.22;;;25.04;59.11
35892;BME280;21993;42.672;23.296;2023-07-31T00:26:01;94383.78;;;25.07;60.06
35892;BME280;21993;42.672;23.296;2023-07-31T00:28:26;94377.66;;;25.00;59.96
35892;BME280;21993;42.672;23.296;2023-07-31T00:30:52;94359.31;;;24.97;61.55
35892;BME280;21993;42.672;23.296;2023-07-31T00:33:18;94354.06;;;24.90;62.20
35892;BME280;21993;42.672;23.296;2023-07-31T00:35:43;94354.88;;;24.91;62.34
35892;BME280;21993;42.672;23.296;2023-07-31T00:38:09;94354.19;;;24.84;62.38
35892;BME280;21993;42.672;23.296;2023-07-31T00:40:35;94351.97;;;24.81;62.26
35892;BME280;21993;42.672;23.296;2023-07-31T00:43:02;94351.84;;;24.76;62.75
35892;BME280;21993;42.672;23.296;2023-07-31T00:45:28;94353.31;;;24.71;62.53
35892;BME280;21993;42.672;23.296;2023-07-31T00:47:54;94353.22;;;24.66;62.07
35892;BME280;21993;42.672;23.296;2023-07-31T00:50:19;94360.47;;;24.66;63.27
35892;BME280;21993;42.672;23.296;2023-07-31T00:52:45;94369.78;;;24.63;63.29
35892;BME280;21993;42.672;23.296;2023-07-31T00:55:10;94365.94;;;24.59;62.65
35892;BME280;21993;42.672;23.296;2023-07-31T00:57:36;94357.53;;;24.56;63.25
35892;BME280;21993;42.672;23.296;2023-07-31T01:00:04;94352.03;;;24.51;62.71
35892;BME280;21993;42.672;23.296;2023-07-31T01:02:29;94346.66;;;24.51;63.32
35892;BME280;21993;42.672;23.296;2023-07-31T01:04:55;94342.09;;;24.51;63.72
35892;BME280;21993;42.672;23.296;2023-07-31T01:07:29;94347.34;;;24.46;64.05
35892;BME280;21993;42.672;23.296;2023-07-31T01:10:04;94347.66;;;24.38;63.55
35892;BME280;21993;42.672;23.296;2023-07-31T01:12:31;94350.59;;;24.36;63.42
35892;BME280;21993;42.672;23.296;2023-07-31T01:15:04;94348.38;;;24.33;63.86
35892;BME280;21993;42.672;23.296;2023-07-31T01:17:31;94338.28;;;24.29;63.65
35892;BME280;21993;42.672;23.296;2023-07-31T01:20:01;94332.56;;;24.25;64.50
35892;BME280;21993;42.672;23.296;2023-07-31T01:22:51;94338.88;;;24.31;64.17
35892;BME280;21993;42.672;23.296;2023-07-31T01:28:15;94340.84;;;24.24;64.44
35892;BME280;21993;42.672;23.296;2023-07-31T01:30:44;94330.13;;;24.24;64.20
35892;BME280;21993;42.672;23.296;2023-07-31T01:33:14;94333.47;;;24.19;64.46
35892;BME280;21993;42.672;23.296;2023-07-31T01:35:43;94331.38;;;24.21;64.38
35892;BME280;21993;42.672;23.296;2023-07-31T01:38:09;94339.06;;;24.18;64.52
35892;BME280;21993;42.672;23.296;2023-07-31T01:40:34;94337.53;;;24.10;64.37
35892;BME280;21993;42.672;23.296;2023-07-31T01:42:59;94337.63;;;24.03;64.73
35892;BME280;21993;42.672;23.296;2023-07-31T01:45:25;94334.34;;;24.01;64.97
35892;BME280;21993;42.672;23.296;2023-07-31T01:47:50;94332.47;;;24.02;65.32
35892;BME280;21993;42.672;23.296;2023-07-31T01:50:16;94328.97;;;24.01;65.10
35892;BME280;21993;42.672;23.296;2023-07-31T01:52:41;94324.09;;;23.98;64.89
35892;BME280;21993;42.672;23.296;2023-07-31T01:55:07;94337.94;;;23.95;65.49
35892;BME280;21993;42.672;23.296;2023-07-31T01:57:32;94340.50;;;23.90;65.69
35892;BME280;21993;42.672;23.296;2023-07-31T01:59:58;94340.72;;;23.89;65.75
35892;BME280;21993;42.672;23.296;2023-07-31T02:02:23;94334.53;;;23.88;65.48
35892;BME280;21993;42.672;23.296;2023-07-31T02:04:49;94338.94;;;23.82;65.88
35892;BME280;21993;42.672;23.296;2023-07-31T02:07:14;94343.50;;;23.82;65.54
35892;BME280;21993;42.672;23.296;2023-07-31T02:09:40;94346.59;;;23.79;66.09
35892;BME280;21993;42.672;23.296;2023-07-31T02:12:05;94338.13;;;23.82;65.88
35892;BME280;21993;42.672;23.296;2023-07-31T02:14:33;94342.66;;;23.81;66.20
35892;BME280;21993;42.672;23.296;2023-07-31T02:16:59;94337.38;;;23.75;66.22
35892;BME280;21993;42.672;23.296;2023-07-31T02:19:24;94340.16;;;23.68;66.38
35892;BME280;21993;42.672;23.296;2023-07-31T02:21:50;94333.50;;;23.71;66.56
35892;BME280;21993;42.672;23.296;2023-07-31T02:24:15;94347.75;;;23.71;66.55
35892;BME280;21993;42.672;23.296;2023-07-31T02:26:40;94345.50;;;23.68;66.73
35892;BME280;21993;42.672;23.296;2023-07-31T02:29:07;94345.06;;;23.71;66.55
35892;BME280;21993;42.672;23.296;2023-07-31T02:31:33;94340.38;;;23.67;67.12
35892;BME280;21993;42.672;23.296;2023-07-31T02:33:58;94345.28;;;23.70;66.79
35892;BME280;21993;42.672;23.296;2023-07-31T02:36:23;94347.13;;;23.69;66.89
35892;BME280;21993;42.672;23.296;2023-07-31T02:38:49;94341.19;;;23.67;66.59
35892;BME280;21993;42.672;23.296;2023-07-31T02:41:14;94338.06;;;23.70;66.82
35892;BME280;21993;42.672;23.296;2023-07-31T02:43:40;94343.78;;;23.74;66.38
35892;BME280;21993;42.672;23.296;2023-07-31T02:46:05;94345.06;;;23.71;66.29
35892;BME280;21993;42.672;23.296;2023-07-31T02:48:31;94346.91;;;23.71;66.30
35892;BME280;21993;42.672;23.296;2023-07-31T02:50:57;94357.84;;;23.69;66.49
35892;BME280;21993;42.672;23.296;2023-07-31T02:53:22;94361.81;;;23.67;66.41
35892;BME280;21993;42.672;23.296;2023-07-31T02:55:48;94370.44;;;23.69;66.42
35892;BME280;21993;42.672;23.296;2023-07-31T02:58:13;94364.28;;;23.68;66.44
35892;BME280;21993;42.672;23.296;2023-07-31T03:00:45;94374.09;;;23.74;66.20
35892;BME280;21993;42.672;23.296;2023-07-31T03:03:10;94374.69;;;23.76;66.26
35892;BME280;21993;42.672;23.296;2023-07-31T03:05:36;94368.75;;;23.74;65.75
35892;BME280;21993;42.672;23.296;2023-07-31T03:08:02;94369.03;;;23.66;66.34
35892;BME280;21993;42.672;23.296;2023-07-31T03:10:27;94376.63;;;23.69;66.01
35892;BME280;21993;42.672;23.296;2023-07-31T03:12:52;94378.66;;;23.74;66.25
35892;BME280;21993;42.672;23.296;2023-07-31T03:15:18;94380.63;;;23.78;65.99
35892;BME280;21993;42.672;23.296;2023-07-31T03:17:43;94380.19;;;23.81;65.63
35892;BME280;21993;42.672;23.296;2023-07-31T03:20:09;94382.06;;;23.81;66.10
35892;BME280;21993;42.672;23.296;2023-07-31T03:22:35;94374.09;;;23.74;66.25
35892;BME280;21993;42.672;23.296;2023-07-31T03:25:02;94383.31;;;23.78;66.32
35892;BME280;21993;42.672;23.296;2023-07-31T03:27:27;94380.13;;;23.70;65.91
35892;BME280;21993;42.672;23.296;2023-07-31T03:29:53;94383.53;;;23.77;66.05
35892;BME280;21993;42.672;23.296;2023-07-31T03:32:18;94385.88;;;23.73;65.92
35892;BME280;21993;42.672;23.296;2023-07-31T03:34:43;94389.38;;;23.74;66.63
35892;BME280;21993;42.672;23.296;2023-07-31T03:37:09;94391.00;;;23.75;66.03
35892;BME280;21993;42.672;23.296;2023-07-31T03:39:35;94394.66;;;23.80;66.37
35892;BME280;21993;42.672;23.296;2023-07-31T03:42:00;94394.44;;;23.82;65.53
35892;BME280;21993;42.672;23.296;2023-07-31T03:44:26;94404.34;;;23.81;65.45
35892;BME280;21993;42.672;23.296;2023-07-31T03:46:51;94393.84;;;23.80;65.70
35892;BME280;21993;42.672;23.296;2023-07-31T03:49:16;94407.00;;;23.81;65.66
35892;BME280;21993;42.672;23.296;2023-07-31T03:51:42;94402.53;;;23.75;65.94
35892;BME280;21993;42.672;23.296;2023-07-31T03:54:07;94401.25;;;23.78;65.86
35892;BME280;21993;42.672;23.296;2023-07-31T03:56:33;94400.59;;;23.82;65.05
35892;BME280;21993;42.672;23.296;2023-07-31T03:58:59;94410.50;;;23.82;65.46
35892;BME280;21993;42.672;23.296;2023-07-31T04:01:24;94415.06;;;23.81;65.28
35892;BME280;21993;42.672;23.296;2023-07-31T04:03:50;94411.31;;;23.82;65.61
35892;BME280;21993;42.672;23.296;2023-07-31T04:06:15;94411.69;;;23.86;65.39
35892;BME280;21993;42.672;23.296;2023-07-31T04:08:43;94411.31;;;23.82;65.18
35892;BME280;21993;42.672;23.296;2023-07-31T04:11:10;94416.31;;;23.79;65.33
35892;BME280;21993;42.672;23.296;2023-07-31T04:13:35;94418.97;;;23.79;65.66
35892;BME280;21993;42.672;23.296;2023-07-31T04:16:00;94417.34;;;23.78;65.52
35892;BME280;21993;42.672;23.296;2023-07-31T04:18:26;94425.78;;;23.81;65.25
35892;BME280;21993;42.672;23.296;2023-07-31T04:20:51;94417.56;;;23.76;65.27
35892;BME280;21993;42.672;23.296;2023-07-31T04:23:17;94428.88;;;23.78;65.35
35892;BME280;21993;42.672;23.296;2023-07-31T04:25:42;94412.16;;;23.83;65.03
35892;BME280;21993;42.672;23.296;2023-07-31T04:28:07;94412.81;;;23.78;65.29
35892;BME280;21993;42.672;23.296;2023-07-31T04:30:33;94414.66;;;23.78;65.36
35892;BME280;21993;42.672;23.296;2023-07-31T04:32:58;94425.84;;;23.75;65.63
35892;BME280;21993;42.672;23.296;2023-07-31T04:35:24;94434.47;;;23.77;65.06
35892;BME280;21993;42.672;23.296;2023-07-31T04:37:49;94418.97;;;23.79;64.65
35892;BME280;21993;42.672;23.296;2023-07-31T04:40:15;94421.53;;;23.74;65.01
35892;BME280;21993;42.672;23.296;2023-07-31T04:42:41;94422.88;;;23.65;65.21
35892;BME280;21993;42.672;23.296;2023-07-31T04:45:08;94416.59;;;23.71;65.37
35892;BME280;21993;42.672;23.296;2023-07-31T04:47:33;94416.25;;;23.67;64.92
35892;BME280;21993;42.672;23.296;2023-07-31T04:49:59;94405.06;;;23.70;64.91
35892;BME280;21993;42.672;23.296;2023-07-31T04:52:24;94411.47;;;23.69;65.23
35892;BME280;21993;42.672;23.296;2023-07-31T04:54:50;94410.00;;;23.73;64.82
35892;BME280;21993;42.672;23.296;2023-07-31T04:57:15;94408.88;;;23.81;64.83
35892;BME280;21993;42.672;23.296;2023-07-31T04:59:40;94412.31;;;23.88;64.52
35892;BME280;21993;42.672;23.296;2023-07-31T05:02:08;94412.88;;;23.90;63.98
35892;BME280;21993;42.672;23.296;2023-07-31T05:04:33;94414.88;;;23.95;64.25
35892;BME280;21993;42.672;23.296;2023-07-31T05:06:59;94411.03;;;23.91;64.29
35892;BME280;21993;42.672;23.296;2023-07-31T05:09:24;94420.19;;;23.83;64.48
35892;BME280;21993;42.672;23.296;2023-07-31T05:11:50;94409.94;;;23.80;64.37
35892;BME280;21993;42.672;23.296;2023-07-31T05:14:15;94416.41;;;23.72;64.71
35892;BME280;21993;42.672;23.296;2023-07-31T05:16:41;94418.03;;;23.73;65.08
35892;BME280;21993;42.672;23.296;2023-07-31T05:19:06;94419.91;;;23.73;64.49
35892;BME280;21993;42.672;23.296;2023-07-31T05:21:32;94422.06;;;23.82;64.83
35892;BME280;21993;42.672;23.296;2023-07-31T05:23:57;94421.06;;;23.95;64.19
35892;BME280;21993;42.672;23.296;2023-07-31T05:26:23;94419.59;;;23.99;63.95
35892;BME280;21993;42.672;23.296;2023-07-31T05:28:48;94414.97;;;23.88;64.36
35892;BME280;21993;42.672;23.296;2023-07-31T05:31:14;94412.72;;;24.03;63.99
35892;BME280;21993;42.672;23.296;2023-07-31T05:33:39;94410.72;;;23.99;64.07
35892;BME280;21993;42.672;23.296;2023-07-31T05:36:05;94413.16;;;24.00;63.57
35892;BME280;21993;42.672;23.296;2023-07-31T05:38:30;94415.91;;;24.12;62.95
35892;BME280;21993;42.672;23.296;2023-07-31T05:40:55;94414.56;;;24.03;62.87
35892;BME280;21993;42.672;23.296;2023-07-31T05:43:21;94407.06;;;23.93;62.70
35892;BME280;21993;42.672;23.296;2023-07-31T05:45:47;94416.91;;;23.99;62.57
35892;BME280;21993;42.672;23.296;2023-07-31T05:48:12;94408.38;;;24.02;62.20
35892;BME280;21993;42.672;23.296;2023-07-31T05:50:37;94417.53;;;24.13;61.50
35892;BME280;21993;42.672;23.296;2023-07-31T05:53:05;94408.97;;;24.23;60.78
35892;BME280;21993;42.672;23.296;2023-07-31T05:55:30;94425.06;;;24.23;60.71
35892;BME280;21993;42.672;23.296;2023-07-31T05:57:56;94418.16;;;24.15;60.94
35892;BME280;21993;42.672;23.296;2023-07-31T06:00:21;94419.19;;;24.14;60.21
35892;BME280;21993;42.672;23.296;2023-07-31T06:02:47;94428.13;;;24.08;59.96
35892;BME280;21993;42.672;23.296;2023-07-31T06:05:13;94419.66;;;23.93;60.42
35892;BME280;21993;42.672;23.296;2023-07-31T06:07:38;94431.72;;;24.02;60.05
35892;BME280;21993;42.672;23.296;2023-07-31T06:10:04;94424.19;;;24.10;60.00
35892;BME280;21993;42.672;23.296;2023-07-31T06:12:34;94436.09;;;24.14;58.82
35892;BME280;21993;42.672;23.296;2023-07-31T06:15:01;94430.03;;;24.19;57.83
35892;BME280;21993;42.672;23.296;2023-07-31T06:17:27;94433.19;;;24.16;58.18
35892;BME280;21993;42.672;23.296;2023-07-31T06:19:52;94429.38;;;24.24;57.83
35892;BME280;21993;42.672;23.296;2023-07-31T06:22:18;94438.22;;;24.42;57.39
35892;BME280;21993;42.672;23.296;2023-07-31T06:24:43;94437.25;;;24.37;57.88
35892;BME280;21993;42.672;23.296;2023-07-31T06:27:10;94434.25;;;24.45;57.72
35892;BME280;21993;42.672;23.296;2023-07-31T06:29:35;94437.44;;;24.54;57.16
35892;BME280;21993;42.672;23.296;2023-07-31T06:32:00;94426.28;;;24.68;56.63
35892;BME280;21993;42.672;23.296;2023-07-31T06:34:26;94429.22;;;24.67;57.07
35892;BME280;21993;42.672;23.296;2023-07-31T06:36:51;94429.78;;;24.69;56.70
35892;BME280;21993;42.672;23.296;2023-07-31T06:39:17;94428.28;;;24.73;56.73
35892;BME280;21993;42.672;23.296;2023-07-31T06:41:44;94429.69;;;24.76;56.35
35892;BME280;21993;42.672;23.296;2023-07-31T06:44:10;94428.66;;;24.88;56.10
35892;BME280;21993;42.672;23.296;2023-07-31T06:46:37;94428.78;;;24.93;56.03
35892;BME280;21993;42.672;23.296;2023-07-31T06:49:03;94433.81;;;25.02;56.65
35892;BME280;21993;42.672;23.296;2023-07-31T06:51:28;94432.84;;;25.14;55.53
35892;BME280;21993;42.672;23.296;2023-07-31T06:53:56;94433.25;;;24.99;56.37
35892;BME280;21993;42.672;23.296;2023-07-31T06:56:22;94431.25;;;24.95;56.65
35892;BME280;21993;42.672;23.296;2023-07-31T06:58:47;94424.88;;;25.08;56.70
35892;BME280;21993;42.672;23.296;2023-07-31T07:01:13;94425.94;;;25.18;55.54
35892;BME280;21993;42.672;23.296;2023-07-31T07:03:38;94427.56;;;25.19;54.97
35892;BME280;21993;42.672;23.296;2023-07-31T07:06:04;94425.59;;;25.15;55.38
35892;BME280;21993;42.672;23.296;2023-07-31T07:08:29;94425.94;;;25.18;54.59
35892;BME280;21993;42.672;23.296;2023-07-31T07:10:55;94426.63;;;25.37;53.95
35892;BME280;21993;42.672;23.296;2023-07-31T07:13:21;94420.78;;;25.29;53.74
35892;BME280;21993;42.672;23.296;2023-07-31T07:15:50;94426.75;;;25.19;54.50
35892;BME280;21993;42.672;23.296;2023-07-31T07:18:16;94418.00;;;25.23;54.72
35892;BME280;21993;42.672;23.296;2023-07-31T07:20:52;94413.69;;;25.34;54.02
35892;BME280;21993;42.672;23.296;2023-07-31T07:23:18;94429.69;;;25.41;53.56
35892;BME280;21993;42.672;23.296;2023-07-31T07:25:45;94434.34;;;25.57;52.78
35892;BME280;21993;42.672;23.296;2023-07-31T07:28:10;94421.50;;;25.59;52.42
35892;BME280;21993;42.672;23.296;2023-07-31T07:30:36;94417.16;;;25.58;52.70
35892;BME280;21993;42.672;23.296;2023-07-31T07:33:01;94418.81;;;25.59;53.19
35892;BME280;21993;42.672;23.296;2023-07-31T07:35:27;94419.63;;;25.71;52.88
35892;BME280;21993;42.672;23.296;2023-07-31T07:37:52;94412.81;;;25.80;52.23
35892;BME280;21993;42.672;23.296;2023-07-31T07:40:19;94414.56;;;25.87;52.07
35892;BME280;21993;42.672;23.296;2023-07-31T07:42:44;94425.78;;;25.95;52.51
35892;BME280;21993;42.672;23.296;2023-07-31T07:45:09;94417.81;;;26.00;51.31
35892;BME280;21993;42.672;23.296;2023-07-31T07:47:35;94428.34;;;26.02;51.17
35892;BME280;21993;42.672;23.296;2023-07-31T07:50:00;94426.78;;;26.06;50.57
35892;BME280;21993;42.672;23.296;2023-07-31T07:52:26;94430.09;;;26.08;50.46
35892;BME280;21993;42.672;23.296;2023-07-31T07:54:51;94428.78;;;26.10;50.45
35892;BME280;21993;42.672;23.296;2023-07-31T07:57:17;94430.41;;;26.12;50.68
35892;BME280;21993;42.672;23.296;2023-07-31T07:59:42;94430.78;;;26.15;50.09
35892;BME280;21993;42.672;23.296;2023-07-31T08:02:08;94435.03;;;26.28;49.90
35892;BME280;21993;42.672;23.296;2023-07-31T08:04:33;94438.66;;;26.33;49.82
35892;BME280;21993;42.672;23.296;2023-07-31T08:06:58;94441.00;;;26.42;49.91
35892;BME280;21993;42.672;23.296;2023-07-31T08:09:24;94441.91;;;26.47;50.03
35892;BME280;21993;42.672;23.296;2023-07-31T08:11:49;94435.69;;;26.47;50.30
35892;BME280;21993;42.672;23.296;2023-07-31T08:14:15;94428.97;;;26.61;49.57
35892;BME280;21993;42.672;23.296;2023-07-31T08:16:42;94433.72;;;26.71;49.18
35892;BME280;21993;42.672;23.296;2023-07-31T08:19:08;94442.16;;;26.74;48.75
35892;BME280;21993;42.672;23.296;2023-07-31T08:21:33;94434.78;;;26.70;49.10
35892;BME280;21993;42.672;23.296;2023-07-31T08:23:59;94438.16;;;26.77;48.82
35892;BME280;21993;42.672;23.296;2023-07-31T08:26:24;94437.00;;;26.89;47.77
35892;BME280;21993;42.672;23.296;2023-07-31T08:28:49;94437.19;;;26.83;48.25
35892;BME280;21993;42.672;23.296;2023-07-31T08:31:15;94432.94;;;26.87;48.06
35892;BME280;21993;42.672;23.296;2023-07-31T08:33:40;94429.09;;;26.83;47.99
35892;BME280;21993;42.672;23.296;2023-07-31T08:36:06;94424.59;;;26.88;47.97
35892;BME280;21993;42.672;23.296;2023-07-31T08:38:31;94422.25;;;26.92;47.76
35892;BME280;21993;42.672;23.296;2023-07-31T08:40:57;94428.72;;;26.91;48.11
35892;BME280;21993;42.672;23.296;2023-07-31T08:43:25;94432.16;;;27.03;47.82
35892;BME280;21993;42.672;23.296;2023-07-31T08:45:52;94432.63;;;27.00;48.20
35892;BME280;21993;42.672;23.296;2023-07-31T08:48:17;94424.19;;;27.08;47.66
35892;BME280;21993;42.672;23.296;2023-07-31T08:50:44;94421.53;;;27.13;47.41
35892;BME280;21993;42.672;23.296;2023-07-31T08:53:10;94424.81;;;27.15;47.68
35892;BME280;21993;42.672;23.296;2023-07-31T08:55:36;94429.06;;;27.28;46.34
35892;BME280;21993;42.672;23.296;2023-07-31T08:58:04;94426.94;;;27.30;46.30
35892;BME280;21993;42.672;23.296;2023-07-31T09:00:33;94419.25;;;27.39;46.06
35892;BME280;21993;42.672;23.296;2023-07-31T09:03:09;94433.28;;;27.41;46.14
35892;BME280;21993;42.672;23.296;2023-07-31T09:05:39;94419.56;;;27.42;45.69
35892;BME280;21993;42.672;23.296;2023-07-31T09:08:07;94431.84;;;27.33;46.08
35892;BME280;21993;42.672;23.296;2023-07-31T09:10:34;94418.25;;;27.45;45.91
35892;BME280;21993;42.672;23.296;2023-07-31T09:13:00;94427.72;;;27.47;45.02
35892;BME280;21993;42.672;23.296;2023-07-31T09:15:27;94413.50;;;27.52;45.11
35892;BME280;21993;42.672;23.296;2023-07-31T09:18:03;94411.88;;;27.68;43.94
35892;BME280;21993;42.672;23.296;2023-07-31T09:20:28;94414.88;;;27.55;44.92
35892;BME280;21993;42.672;23.296;2023-07-31T09:22:55;94412.94;;;27.50;46.14
35892;BME280;21993;42.672;23.296;2023-07-31T09:25:25;94410.31;;;27.55;46.14
35892;BME280;21993;42.672;23.296;2023-07-31T09:27:56;94405.47;;;27.57;46.48
35892;BME280;21993;42.672;23.296;2023-07-31T09:30:22;94400.72;;;27.64;45.98
35892;BME280;21993;42.672;23.296;2023-07-31T09:32:49;94389.09;;;27.81;45.00
35892;BME280;21993;42.672;23.296;2023-07-31T09:37:41;94395.66;;;27.85;45.29
35892;BME280;21993;42.672;23.296;2023-07-31T09:40:06;94385.09;;;27.83;45.08
35892;BME280;21993;42.672;23.296;2023-07-31T09:42:34;94384.97;;;27.95;44.92
35892;BME280;21993;42.672;23.296;2023-07-31T09:45:09;94383.03;;;28.12;44.50
35892;BME280;21993;42.672;23.296;2023-07-31T09:47:35;94385.59;;;28.02;44.85
35892;BME280;21993;42.672;23.296;2023-07-31T09:50:00;94397.88;;;28.15;45.01
35892;BME280;21993;42.672;23.296;2023-07-31T09:52:26;94389.84;;;28.20;44.54
35892;BME280;21993;42.672;23.296;2023-07-31T09:54:52;94384.13;;;28.16;44.46
35892;BME280;21993;42.672;23.296;2023-07-31T09:57:21;94383.03;;;28.34;44.06
35892;BME280;21993;42.672;23.296;2023-07-31T09:59:48;94390.00;;;28.30;44.11
35892;BME280;21993;42.672;23.296;2023-07-31T10:02:17;94382.97;;;28.29;44.08
35892;BME280;21993;42.672;23.296;2023-07-31T10:04:49;94382.41;;;28.54;43.01
35892;BME280;21993;42.672;23.296;2023-07-31T10:07:17;94384.03;;;28.55;43.04
35892;BME280;21993;42.672;23.296;2023-07-31T10:09:44;94388.81;;;28.75;42.15
35892;BME280;21993;42.672;23.296;2023-07-31T10:12:12;94384.66;;;28.62;42.56
35892;BME280;21993;42.672;23.296;2023-07-31T10:14:41;94367.94;;;28.65;41.83
35892;BME280;21993;42.672;23.296;2023-07-31T10:17:08;94388.34;;;28.51;42.90
35892;BME280;21993;42.672;23.296;2023-07-31T10:19:34;94385.38;;;28.52;42.76
35892;BME280;21993;42.672;23.296;2023-07-31T10:22:02;94370.06;;;28.63;42.45
35892;BME280;21993;42.672;23.296;2023-07-31T10:24:29;94368.44;;;28.62;42.53
35892;BME280;21993;42.672;23.296;2023-07-31T10:26:57;94369.91;;;28.75;42.26
35892;BME280;21993;42.672;23.296;2023-07-31T10:29:24;94367.53;;;28.78;42.01
35892;BME280;21993;42.672;23.296;2023-07-31T10:31:50;94376.91;;;28.98;41.20
35892;BME280;21993;42.672;23.296;2023-07-31T10:34:17;94372.44;;;28.86;41.72
35892;BME280;21993;42.672;23.296;2023-07-31T10:36:42;94360.94;;;28.96;41.38
35892;BME280;21993;42.672;23.296;2023-07-31T10:39:36;94360.75;;;29.08;41.17
35892;BME280;21993;42.672;23.296;2023-07-31T10:42:10;94357.56;;;29.16;40.72
35892;BME280;21993;42.672;23.296;2023-07-31T10:44:36;94360.84;;;29.18;40.78
35892;BME280;21993;42.672;23.296;2023-07-31T10:47:01;94354.97;;;29.31;40.51
35892;BME280;21993;42.672;23.296;2023-07-31T10:49:29;94345.81;;;29.37;40.30
35892;BME280;21993;42.672;23.296;2023-07-31T10:51:57;94359.84;;;29.34;40.71
35892;BME280;21993;42.672;23.296;2023-07-31T10:54:22;94359.59;;;29.36;40.59
35892;BME280;21993;42.672;23.296;2023-07-31T10:56:50;94349.63;;;29.41;39.52
35892;BME280;21993;42.672;23.296;2023-07-31T10:59:15;94345.88;;;29.48;39.35
35892;BME280;21993;42.672;23.296;2023-07-31T11:01:53;94337.25;;;29.51;39.45
35892;BME280;21993;42.672;23.296;2023-07-31T11:04:24;94332.66;;;29.51;39.63
35892;BME280;21993;42.672;23.296;2023-07-31T11:06:57;94334.13;;;29.74;38.62
35892;BME280;21993;42.672;23.296;2023-07-31T11:09:27;94338.16;;;29.66;38.38
35892;BME280;21993;42.672;23.296;2023-07-31T11:11:53;94328.72;;;29.69;37.99
35892;BME280;21993;42.672;23.296;2023-07-31T11:14:19;94328.44;;;29.76;38.64
35892;BME280;21993;42.672;23.296;2023-07-31T11:16:45;94331.41;;;29.69;38.07
35892;BME280;21993;42.672;23.296;2023-07-31T11:19:10;94338.69;;;29.63;38.54
35892;BME280;21993;42.672;23.296;2023-07-31T11:21:36;94337.59;;;29.64;38.08
35892;BME280;21993;42.672;23.296;2023-07-31T11:24:02;94325.03;;;29.95;37.40
35892;BME280;21993;42.672;23.296;2023-07-31T11:26:27;94329.63;;;29.95;37.25
35892;BME280;21993;42.672;23.296;2023-07-31T11:28:53;94333.63;;;29.82;37.58
35892;BME280;21993;42.672;23.296;2023-07-31T11:31:18;94334.44;;;29.83;37.42
35892;BME280;21993;42.672;23.296;2023-07-31T11:33:44;94330.13;;;29.87;36.80
35892;BME280;21993;42.672;23.296;2023-07-31T11:36:17;94325.00;;;29.85;37.69
35892;BME280;21993;42.672;23.296;2023-07-31T11:38:43;94336.31;;;29.82;37.87
35892;BME280;21993;42.672;23.296;2023-07-31T11:41:08;94329.59;;;29.90;37.93
35892;BME280;21993;42.672;23.296;2023-07-31T11:43:34;94331.53;;;29.99;38.44
35892;BME280;21993;42.672;23.296;2023-07-31T11:46:02;94331.00;;;30.03;38.21
35892;BME280;21993;42.672;23.296;2023-07-31T11:48:35;94327.44;;;29.92;38.42
35892;BME280;21993;42.672;23.296;2023-07-31T11:51:07;94326.09;;;29.94;37.62
35892;BME280;21993;42.672;23.296;2023-07-31T11:56:06;94315.56;;;30.03;36.98
35892;BME280;21993;42.672;23.296;2023-07-31T11:58:34;94313.72;;;30.09;37.02
35892;BME280;21993;42.672;23.296;2023-07-31T12:01:00;94313.72;;;30.14;37.47
35892;BME280;21993;42.672;23.296;2023-07-31T12:03:26;94330.19;;;30.07;37.61
35892;BME280;21993;42.672;23.296;2023-07-31T12:05:53;94322.69;;;30.19;36.45
35892;BME280;21993;42.672;23.296;2023-07-31T12:08:21;94322.66;;;30.09;37.47
35892;BME280;21993;42.672;23.296;2023-07-31T12:10:50;94317.22;;;30.09;38.12
35892;BME280;21993;42.672;23.296;2023-07-31T12:13:21;94309.94;;;30.15;37.66
35892;BME280;21993;42.672;23.296;2023-07-31T12:15:47;94302.41;;;30.27;37.55
35892;BME280;21993;42.672;23.296;2023-07-31T12:18:14;94293.44;;;30.21;37.99
35892;BME280;21993;42.672;23.296;2023-07-31T12:20:47;94298.88;;;30.37;38.52
35892;BME280;21993;42.672;23.296;2023-07-31T12:23:24;94293.47;;;30.37;38.10
35892;BME280;21993;42.672;23.296;2023-07-31T12:26:12;94290.50;;;30.38;38.60
35892;BME280;21993;42.672;23.296;2023-07-31T12:28:44;94292.91;;;30.35;38.09
35892;BME280;21993;42.672;23.296;2023-07-31T12:31:11;94294.53;;;30.31;37.78
35892;BME280;21993;42.672;23.296;2023-07-31T12:33:38;94293.72;;;30.20;38.03
35892;BME280;21993;42.672;23.296;2023-07-31T12:36:08;94298.59;;;30.28;37.03
35892;BME280;21993;42.672;23.296;2023-07-31T12:38:33;94284.78;;;30.19;37.10
35892;BME280;21993;42.672;23.296;2023-07-31T12:40:59;94293.69;;;30.15;37.36
35892;BME280;21993;42.672;23.296;2023-07-31T12:43:24;94290.75;;;30.37;36.89
35892;BME280;21993;42.672;23.296;2023-07-31T12:45:50;94295.63;;;30.30;36.49
35892;BME280;21993;42.672;23.296;2023-07-31T12:48:15;94284.78;;;30.35;36.22
35892;BME280;21993;42.672;23.296;2023-07-31T12:50:41;94281.00;;;30.36;36.43
35892;BME280;21993;42.672;23.296;2023-07-31T12:53:07;94287.50;;;30.40;36.40
35892;BME280;21993;42.672;23.296;2023-07-31T12:55:33;94285.59;;;30.20;36.92